createdAt,value
2019-05-05T00:00:04.741Z,3.95
2019-05-05T00:05:04.731Z,3.30
2019-05-05T00:10:04.612Z,3.25
2019-05-05T00:15:05.181Z,3.40
2019-05-05T00:20:02.736Z,3.20
2019-05-05T00:25:05.069Z,3.08
2019-05-05T00:30:02.607Z,3.37
2019-05-05T00:35:04.356Z,3.55
2019-05-05T00:40:04.856Z,3.67
2019-05-05T00:45:02.504Z,5.42
2019-05-05T00:50:05.184Z,3.72
2019-05-05T00:55:04.553Z,3.98
2019-05-05T01:00:05.008Z,4.05
2019-05-05T01:05:04.543Z,3.60
2019-05-05T01:10:04.941Z,3.67
2019-05-05T01:15:04.479Z,3.95
2019-05-05T01:20:04.563Z,4.53
2019-05-05T01:25:05.266Z,3.60
2019-05-05T01:30:04.660Z,3.50
2019-05-05T01:35:05.278Z,4.25
2019-05-05T01:40:04.379Z,3.87
2019-05-05T01:45:04.394Z,5.00
2019-05-05T01:50:15.255Z,3.65
2019-05-05T01:55:05.158Z,4.08
2019-05-05T02:00:04.273Z,3.90
2019-05-05T02:05:04.606Z,4.10
2019-05-05T02:10:05.795Z,0
2019-05-05T02:15:04.237Z,4.08
2019-05-05T02:20:02.718Z,3.60
2019-05-05T02:25:04.256Z,3.33
2019-05-05T02:30:05.728Z,4.90
2019-05-05T02:35:02.831Z,3.37
2019-05-05T02:40:07.249Z,4.05
2019-05-05T02:45:05.557Z,3.47
2019-05-05T02:50:05.222Z,3.70
2019-05-05T02:55:04.099Z,4.25
2019-05-05T03:00:04.503Z,3.87
2019-05-05T03:05:04.184Z,3.87
2019-05-05T03:10:03.757Z,4.25
2019-05-05T03:15:04.227Z,4.17
2019-05-05T03:20:04.121Z,4.03
2019-05-05T03:25:04.633Z,3.95
2019-05-05T03:30:05.093Z,3.98
2019-05-05T03:35:04.289Z,3.80
2019-05-05T03:40:04.291Z,4.20
2019-05-05T03:45:04.184Z,3.95
2019-05-05T03:50:04.346Z,4.22
2019-05-05T03:55:03.842Z,4.28
2019-05-05T04:00:04.311Z,3.60
2019-05-05T04:05:04.012Z,3.50
2019-05-05T04:10:03.703Z,3.93
2019-05-05T04:15:03.726Z,3.92
2019-05-05T04:20:03.896Z,4.70
2019-05-05T04:25:04.612Z,4.07
2019-05-05T04:30:03.875Z,3.80
2019-05-05T04:35:03.710Z,5.15
2019-05-05T04:40:04.177Z,4.00
2019-05-05T04:45:04.240Z,4.10
2019-05-05T04:50:04.356Z,4.30
2019-05-05T04:55:03.851Z,4.55
2019-05-05T05:00:04.198Z,4.27
2019-05-05T05:05:04.010Z,5.97
2019-05-05T05:10:03.952Z,9.08
2019-05-05T05:15:04.327Z,4.35
2019-05-05T05:20:03.762Z,8.63
2019-05-05T05:25:04.478Z,8.43
2019-05-05T05:30:04.666Z,15.03
2019-05-05T05:35:03.787Z,11.85
2019-05-05T05:40:03.916Z,7.87
2019-05-05T05:45:04.073Z,6.12
2019-05-05T05:50:04.048Z,4.47
2019-05-05T05:55:04.113Z,5.03
2019-05-05T06:00:04.094Z,7.75
2019-05-05T06:05:04.348Z,7.25
2019-05-05T06:10:03.773Z,6.07
2019-05-05T06:15:03.852Z,7.22
2019-05-05T06:20:04.050Z,10.50
2019-05-05T06:25:06.122Z,10.20
2019-05-05T06:30:04.493Z,10.85
2019-05-05T06:35:03.702Z,11.83
2019-05-05T06:40:03.771Z,10.25
2019-05-05T06:45:04.131Z,11.28
2019-05-05T06:50:03.654Z,7.58
2019-05-05T06:55:03.749Z,10.45
2019-05-05T07:00:03.829Z,17.73
2019-05-05T07:05:04.098Z,34.05
2019-05-05T07:10:03.728Z,13.62
2019-05-05T07:15:04.224Z,13.65
2019-05-05T07:20:04.341Z,19.07
2019-05-05T07:25:04.724Z,11.85
2019-05-05T07:30:04.774Z,11.43
2019-05-05T07:35:04.075Z,0
2019-05-05T07:40:04.255Z,15.35
2019-05-05T07:45:05.433Z,14.83
2019-05-05T07:50:04.130Z,14.28
2019-05-05T07:55:03.638Z,10.38
2019-05-05T08:00:05.269Z,11.20
2019-05-05T08:05:04.642Z,13.10
2019-05-05T08:10:04.603Z,14.28
2019-05-05T08:15:04.323Z,11.60
2019-05-05T08:20:03.982Z,21.05
2019-05-05T08:25:04.088Z,18.05
2019-05-05T08:30:05.172Z,39.10
2019-05-05T08:35:04.344Z,17.37
2019-05-05T08:40:04.293Z,12.40
2019-05-05T08:45:04.577Z,14.28
2019-05-05T08:50:04.145Z,13.32
2019-05-05T08:55:04.686Z,9.90
2019-05-05T09:00:04.869Z,11.88
2019-05-05T09:05:04.251Z,10.32
2019-05-05T09:10:03.856Z,12.60
2019-05-05T09:15:04.413Z,7.42
2019-05-05T09:20:04.552Z,13.78
2019-05-05T09:25:04.327Z,13.48
2019-05-05T09:30:03.913Z,14.78
2019-05-05T09:35:04.599Z,11.65
2019-05-05T09:40:04.554Z,14.53
2019-05-05T09:45:04.758Z,13.18
2019-05-05T09:50:03.905Z,11.65
2019-05-05T09:55:03.874Z,7.72
2019-05-05T10:00:04.621Z,10.60
2019-05-05T10:05:03.984Z,8.48
2019-05-05T10:10:04.550Z,7.50
2019-05-05T10:15:07.169Z,11.75
2019-05-05T10:20:03.937Z,9.18
2019-05-05T10:25:04.163Z,10.65
2019-05-05T10:30:04.146Z,9.23
2019-05-05T10:35:04.420Z,8.10
2019-05-05T10:40:03.716Z,11.85
2019-05-05T10:45:04.376Z,8.00
2019-05-05T10:50:04.945Z,8.18
2019-05-05T10:55:03.959Z,11.10
2019-05-05T11:00:10.116Z,8.23
2019-05-05T11:05:04.068Z,7.60
2019-05-05T11:10:03.575Z,5.37
2019-05-05T11:15:04.053Z,10.90
2019-05-05T11:20:03.739Z,10.18
2019-05-05T11:25:05.070Z,7.65
2019-05-05T11:30:04.024Z,5.35
2019-05-05T11:35:04.291Z,8.15
2019-05-05T11:40:04.227Z,9.08
2019-05-05T11:45:04.262Z,5.87
2019-05-05T11:50:04.401Z,3.15
2019-05-05T12:00:03.836Z,6.35
2019-05-05T12:05:04.598Z,11.30
2019-05-05T12:10:03.053Z,4.65
2019-05-05T12:15:04.347Z,5.03
2019-05-05T12:20:04.747Z,5.35
2019-05-05T12:25:04.096Z,4.97
2019-05-05T12:30:03.808Z,4.37
2019-05-05T12:35:04.216Z,6.72
2019-05-05T12:40:03.998Z,8.33
2019-05-05T12:45:04.424Z,6.35
2019-05-05T12:50:03.171Z,9.63
2019-05-05T12:55:04.978Z,6.12
2019-05-05T13:00:04.234Z,5.80
2019-05-05T13:05:04.255Z,8.03
2019-05-05T13:10:04.699Z,7.70
2019-05-05T13:15:04.071Z,10.30
2019-05-05T13:20:02.653Z,7.28
2019-05-05T13:25:04.605Z,11.05
2019-05-05T13:30:04.335Z,9.70
2019-05-05T13:35:04.036Z,15.35
2019-05-05T13:40:04.462Z,6.87
2019-05-05T13:45:03.972Z,8.38
2019-05-05T13:50:03.679Z,8.28
2019-05-05T13:55:03.303Z,12.73
2019-05-05T14:00:03.776Z,9.60
2019-05-05T14:05:04.593Z,4.22
2019-05-05T14:10:03.923Z,6.28
2019-05-05T14:15:04.058Z,7.28
2019-05-05T14:20:09.442Z,6.80
2019-05-05T14:25:04.374Z,5.42
2019-05-05T14:30:04.099Z,7.10
2019-05-05T14:35:03.965Z,9.95
2019-05-05T14:40:04.521Z,4.45
2019-05-05T14:45:04.737Z,6.95
2019-05-05T14:50:04.674Z,4.80
2019-05-05T14:55:03.890Z,4.85
2019-05-05T15:00:04.517Z,3.90
2019-05-05T15:05:03.764Z,6.58
2019-05-05T15:10:04.220Z,6.95
2019-05-05T15:15:03.983Z,9.58
2019-05-05T15:20:03.150Z,7.65
2019-05-05T15:25:04.170Z,9.08
2019-05-05T15:30:04.407Z,6.28
2019-05-05T15:35:04.001Z,6.95
2019-05-05T15:40:03.985Z,6.47
2019-05-05T15:45:03.992Z,6.35
2019-05-05T15:50:04.488Z,8.53
2019-05-05T15:55:04.513Z,7.08
2019-05-05T16:00:03.017Z,3.85
2019-05-05T16:05:04.407Z,10.13
2019-05-05T16:10:34.796Z,7.97
2019-05-05T16:15:04.481Z,3.33
2019-05-05T16:20:04.551Z,6.20
2019-05-05T16:25:04.277Z,5.45
2019-05-05T16:30:04.067Z,4.80
2019-05-05T16:35:05.849Z,5.03
2019-05-05T16:40:03.473Z,5.87
2019-05-05T16:45:04.471Z,4.65
2019-05-05T16:50:04.181Z,5.58
2019-05-05T16:55:04.603Z,4.47
2019-05-05T17:00:03.199Z,5.60
2019-05-05T17:05:04.348Z,4.60
2019-05-05T17:10:06.066Z,7.87
2019-05-05T17:15:01.996Z,0
2019-05-05T17:20:04.443Z,5.00
2019-05-05T17:25:03.107Z,10.30
2019-05-05T17:30:04.336Z,3.85
2019-05-05T17:35:03.786Z,8.10
2019-05-05T17:40:04.183Z,0
2019-05-05T17:45:03.730Z,6.78
2019-05-05T17:50:04.179Z,7.33
2019-05-05T17:55:04.566Z,5.17
2019-05-05T18:00:04.319Z,4.22
2019-05-05T18:05:04.526Z,4.30
2019-05-05T18:10:04.137Z,4.65
2019-05-05T18:15:04.491Z,3.83
2019-05-05T18:20:04.454Z,3.20
2019-05-05T18:25:02.955Z,5.42
2019-05-05T18:30:03.975Z,2.50
2019-05-05T18:35:06.368Z,3.52
2019-05-05T18:40:04.068Z,3.10
2019-05-05T18:45:03.761Z,3.15
2019-05-05T18:50:04.144Z,6.67
2019-05-05T18:55:04.392Z,3.92
2019-05-05T19:00:03.787Z,2.62
2019-05-05T19:05:04.608Z,0
2019-05-05T19:10:04.065Z,5.28
2019-05-05T19:15:04.355Z,3.33
2019-05-05T19:20:04.292Z,3.62
2019-05-05T19:25:04.264Z,5.05
2019-05-05T19:30:04.452Z,2.87
2019-05-05T19:35:03.972Z,4.10
2019-05-05T19:40:04.327Z,5.20
2019-05-05T19:45:04.279Z,3.60
2019-05-05T19:50:02.801Z,3.75
2019-05-05T19:55:04.407Z,4.95
2019-05-05T20:00:04.047Z,3.52
2019-05-05T20:05:04.302Z,3.17
2019-05-05T20:10:04.037Z,3.45
2019-05-05T20:15:04.121Z,3.30
2019-05-05T20:20:04.450Z,2.90
2019-05-05T20:25:04.364Z,3.35
2019-05-05T20:30:06.284Z,3.08
2019-05-05T20:35:04.066Z,2.85
2019-05-05T20:40:03.961Z,4.30
2019-05-05T20:45:04.125Z,2.90
2019-05-05T20:50:04.699Z,3.02
2019-05-05T20:55:04.793Z,3.58
2019-05-05T21:00:03.376Z,3.67
2019-05-05T21:05:04.068Z,3.20
2019-05-05T21:10:04.484Z,3.25
2019-05-05T21:15:04.875Z,3.65
2019-05-05T21:20:04.377Z,3.35
2019-05-05T21:25:04.844Z,3.12
2019-05-05T21:30:04.026Z,3.00
2019-05-05T21:35:02.689Z,3.42
2019-05-05T21:40:04.698Z,3.47
2019-05-05T21:45:04.619Z,4.30
2019-05-05T21:50:03.704Z,3.52
2019-05-05T21:55:04.246Z,3.27
2019-05-05T22:00:04.457Z,3.80
2019-05-05T22:05:04.014Z,3.50
2019-05-05T22:10:04.479Z,4.03
2019-05-05T22:15:04.266Z,3.60
2019-05-05T22:20:04.155Z,0
2019-05-05T22:25:03.649Z,3.72
2019-05-05T22:30:09.968Z,4.70
2019-05-05T22:35:02.995Z,4.25
2019-05-05T22:40:02.411Z,4.75
2019-05-05T22:45:04.607Z,3.95
2019-05-05T22:50:04.447Z,4.37
2019-05-05T22:55:04.587Z,3.75
2019-05-05T23:00:07.219Z,4.72
2019-05-05T23:05:04.063Z,3.60
2019-05-05T23:10:04.605Z,4.12
2019-05-05T23:15:04.027Z,5.67
2019-05-05T23:20:04.660Z,4.35
2019-05-05T23:25:04.135Z,4.15
2019-05-05T23:30:02.679Z,3.95
2019-05-05T23:35:03.202Z,4.53
2019-05-05T23:40:03.790Z,4.25
2019-05-05T23:45:04.439Z,5.60
2019-05-05T23:50:04.557Z,6.83
2019-05-05T23:55:04.019Z,5.03
